sensor_id;sensor_type;location;lat;lon;timestamp;pressure;altitude;pressure_sealevel;temperature
67758;BMP180;54562;47.620;18.786;2023-03-01T00:02:41;99459.40;;;3.50
67758;BMP180;54562;47.620;18.786;2023-03-01T00:05:49;99459.80;;;3.50
67758;BMP180;54562;47.620;18.786;2023-03-01T00:08:58;99459.80;;;3.50
67758;BMP180;54562;47.620;18.786;2023-03-01T00:12:06;99461.60;;;3.50
67758;BMP180;54562;47.620;18.786;2023-03-01T00:15:15;99461.60;;;3.48
67758;BMP180;54562;47.620;18.786;2023-03-01T00:18:23;99461.00;;;3.50
67758;BMP180;54562;47.620;18.786;2023-03-01T00:21:31;99465.20;;;3.50
67758;BMP180;54562;47.620;18.786;2023-03-01T00:24:40;99472.40;;;3.46
67758;BMP180;54562;47.620;18.786;2023-03-01T00:27:49;99473.80;;;3.50
67758;BMP180;54562;47.620;18.786;2023-03-01T00:30:57;99469.60;;;3.50
67758;BMP180;54562;47.620;18.786;2023-03-01T00:34:10;99473.00;;;3.50
67758;BMP180;54562;47.620;18.786;2023-03-01T00:37:18;99476.60;;;3.50
67758;BMP180;54562;47.620;18.786;2023-03-01T00:40:28;99473.80;;;3.50
67758;BMP180;54562;47.620;18.786;2023-03-01T00:43:36;99477.40;;;3.50
67758;BMP180;54562;47.620;18.786;2023-03-01T00:46:44;99473.80;;;3.40
67758;BMP180;54562;47.620;18.786;2023-03-01T00:49:52;99477.00;;;3.40
67758;BMP180;54562;47.620;18.786;2023-03-01T00:53:00;99477.60;;;3.40
67758;BMP180;54562;47.620;18.786;2023-03-01T00:56:11;99471.60;;;3.40
67758;BMP180;54562;47.620;18.786;2023-03-01T00:59:19;99471.60;;;3.40
67758;BMP180;54562;47.620;18.786;2023-03-01T01:02:27;99471.20;;;3.40
67758;BMP180;54562;47.620;18.786;2023-03-01T01:05:37;99470.00;;;3.40
67758;BMP180;54562;47.620;18.786;2023-03-01T01:08:43;99472.60;;;3.40
67758;BMP180;54562;47.620;18.786;2023-03-01T01:11:52;99463.40;;;3.40
67758;BMP180;54562;47.620;18.786;2023-03-01T01:15:00;99466.00;;;3.40
67758;BMP180;54562;47.620;18.786;2023-03-01T01:18:08;99458.40;;;3.40
67758;BMP180;54562;47.620;18.786;2023-03-01T01:21:19;99453.40;;;3.40
67758;BMP180;54562;47.620;18.786;2023-03-01T01:24:28;99449.80;;;3.40
67758;BMP180;54562;47.620;18.786;2023-03-01T01:27:36;99452.60;;;3.40
67758;BMP180;54562;47.620;18.786;2023-03-01T01:30:45;99442.80;;;3.40
67758;BMP180;54562;47.620;18.786;2023-03-01T01:33:54;99441.00;;;3.40
67758;BMP180;54562;47.620;18.786;2023-03-01T01:37:02;99432.20;;;3.40
67758;BMP180;54562;47.620;18.786;2023-03-01T01:43:28;99426.80;;;3.30
67758;BMP180;54562;47.620;18.786;2023-03-01T01:46:40;99419.80;;;3.28
67758;BMP180;54562;47.620;18.786;2023-03-01T01:49:50;99419.00;;;3.20
67758;BMP180;54562;47.620;18.786;2023-03-01T01:52:59;99415.60;;;3.18
67758;BMP180;54562;47.620;18.786;2023-03-01T01:56:11;99418.00;;;3.10
67758;BMP180;54562;47.620;18.786;2023-03-01T01:59:20;99416.20;;;3.10
67758;BMP180;54562;47.620;18.786;2023-03-01T02:02:31;99418.80;;;3.00
67758;BMP180;54562;47.620;18.786;2023-03-01T02:05:44;99416.00;;;3.00
67758;BMP180;54562;47.620;18.786;2023-03-01T02:09:06;99414.60;;;3.00
67758;BMP180;54562;47.620;18.786;2023-03-01T02:12:16;99412.00;;;3.00
67758;BMP180;54562;47.620;18.786;2023-03-01T02:15:25;99409.60;;;3.00
67758;BMP180;54562;47.620;18.786;2023-03-01T02:18:34;99407.20;;;3.00
67758;BMP180;54562;47.620;18.786;2023-03-01T02:21:50;99403.20;;;3.00
67758;BMP180;54562;47.620;18.786;2023-03-01T02:28:33;99398.40;;;3.00
67758;BMP180;54562;47.620;18.786;2023-03-01T02:31:42;99401.60;;;3.00
67758;BMP180;54562;47.620;18.786;2023-03-01T02:34:50;99402.00;;;3.00
67758;BMP180;54562;47.620;18.786;2023-03-01T02:37:58;99392.60;;;2.92
67758;BMP180;54562;47.620;18.786;2023-03-01T02:41:10;99387.00;;;2.98
67758;BMP180;54562;47.620;18.786;2023-03-01T02:44:19;99385.00;;;2.90
67758;BMP180;54562;47.620;18.786;2023-03-01T02:47:28;99384.80;;;2.90
67758;BMP180;54562;47.620;18.786;2023-03-01T02:50:57;99376.40;;;2.90
67758;BMP180;54562;47.620;18.786;2023-03-01T02:54:21;99371.40;;;2.90
67758;BMP180;54562;47.620;18.786;2023-03-01T02:57:34;99372.20;;;2.80
67758;BMP180;54562;47.620;18.786;2023-03-01T03:00:44;99372.80;;;2.78
67758;BMP180;54562;47.620;18.786;2023-03-01T03:03:53;99369.20;;;2.70
67758;BMP180;54562;47.620;18.786;2023-03-01T03:07:01;99370.20;;;2.70
67758;BMP180;54562;47.620;18.786;2023-03-01T03:10:15;99362.00;;;2.62
67758;BMP180;54562;47.620;18.786;2023-03-01T03:13:26;99360.20;;;2.60
67758;BMP180;54562;47.620;18.786;2023-03-01T03:16:34;99361.40;;;2.62
67758;BMP180;54562;47.620;18.786;2023-03-01T03:19:42;99355.00;;;2.60
67758;BMP180;54562;47.620;18.786;2023-03-01T03:22:54;99351.40;;;2.60
67758;BMP180;54562;47.620;18.786;2023-03-01T03:26:03;99349.60;;;2.60
67758;BMP180;54562;47.620;18.786;2023-03-01T03:29:11;99349.80;;;2.60
67758;BMP180;54562;47.620;18.786;2023-03-01T03:32:19;99350.40;;;2.60
67758;BMP180;54562;47.620;18.786;2023-03-01T03:35:30;99349.60;;;2.60
67758;BMP180;54562;47.620;18.786;2023-03-01T03:38:39;99348.40;;;2.60
67758;BMP180;54562;47.620;18.786;2023-03-01T03:41:47;99349.20;;;2.60
67758;BMP180;54562;47.620;18.786;2023-03-01T03:44:55;99342.20;;;2.60
67758;BMP180;54562;47.620;18.786;2023-03-01T03:48:04;99352.20;;;2.60
67758;BMP180;54562;47.620;18.786;2023-03-01T03:51:16;99341.40;;;2.60
67758;BMP180;54562;47.620;18.786;2023-03-01T03:54:24;99347.40;;;2.60
67758;BMP180;54562;47.620;18.786;2023-03-01T03:57:32;99340.20;;;2.60
67758;BMP180;54562;47.620;18.786;2023-03-01T04:00:42;99344.80;;;2.60
67758;BMP180;54562;47.620;18.786;2023-03-01T04:03:50;99344.80;;;2.70
67758;BMP180;54562;47.620;18.786;2023-03-01T04:07:01;99345.00;;;2.70
67758;BMP180;54562;47.620;18.786;2023-03-01T04:10:16;99354.60;;;2.70
67758;BMP180;54562;47.620;18.786;2023-03-01T04:13:25;99359.00;;;2.70
67758;BMP180;54562;47.620;18.786;2023-03-01T04:16:33;99359.00;;;2.70
67758;BMP180;54562;47.620;18.786;2023-03-01T04:19:41;99357.00;;;2.70
67758;BMP180;54562;47.620;18.786;2023-03-01T04:22:50;99360.40;;;2.70
67758;BMP180;54562;47.620;18.786;2023-03-01T04:26:00;99357.40;;;2.70
67758;BMP180;54562;47.620;18.786;2023-03-01T04:29:08;99358.40;;;2.70
67758;BMP180;54562;47.620;18.786;2023-03-01T04:32:16;99364.00;;;2.74
67758;BMP180;54562;47.620;18.786;2023-03-01T04:35:25;99361.80;;;2.78
67758;BMP180;54562;47.620;18.786;2023-03-01T04:38:34;99360.00;;;2.80
67758;BMP180;54562;47.620;18.786;2023-03-01T04:41:44;99358.80;;;2.80
67758;BMP180;54562;47.620;18.786;2023-03-01T04:44:52;99362.20;;;2.80
67758;BMP180;54562;47.620;18.786;2023-03-01T04:48:00;99358.20;;;2.80
67758;BMP180;54562;47.620;18.786;2023-03-01T04:51:09;99353.20;;;2.90
67758;BMP180;54562;47.620;18.786;2023-03-01T04:54:20;99354.20;;;2.90
67758;BMP180;54562;47.620;18.786;2023-03-01T04:57:28;99350.60;;;2.90
67758;BMP180;54562;47.620;18.786;2023-03-01T05:00:37;99353.00;;;2.90
67758;BMP180;54562;47.620;18.786;2023-03-01T05:03:48;99352.80;;;2.90
67758;BMP180;54562;47.620;18.786;2023-03-01T05:06:57;99352.00;;;2.90
67758;BMP180;54562;47.620;18.786;2023-03-01T05:10:08;99348.60;;;2.90
67758;BMP180;54562;47.620;18.786;2023-03-01T05:13:17;99340.00;;;2.90
67758;BMP180;54562;47.620;18.786;2023-03-01T05:16:28;99340.60;;;2.90
67758;BMP180;54562;47.620;18.786;2023-03-01T05:19:40;99339.80;;;2.90
67758;BMP180;54562;47.620;18.786;2023-03-01T05:22:49;99342.80;;;2.90
67758;BMP180;54562;47.620;18.786;2023-03-01T05:26:01;99340.60;;;2.90
67758;BMP180;54562;47.620;18.786;2023-03-01T05:29:12;99342.80;;;2.94
67758;BMP180;54562;47.620;18.786;2023-03-01T05:32:20;99348.80;;;2.90
67758;BMP180;54562;47.620;18.786;2023-03-01T05:35:29;99352.20;;;2.90
67758;BMP180;54562;47.620;18.786;2023-03-01T05:38:39;99352.80;;;2.90
67758;BMP180;54562;47.620;18.786;2023-03-01T05:41:47;99360.20;;;2.90
67758;BMP180;54562;47.620;18.786;2023-03-01T05:44:56;99362.40;;;2.90
67758;BMP180;54562;47.620;18.786;2023-03-01T05:48:04;99369.60;;;2.92
67758;BMP180;54562;47.620;18.786;2023-03-01T05:51:13;99365.20;;;2.94
67758;BMP180;54562;47.620;18.786;2023-03-01T05:54:23;99369.80;;;2.92
67758;BMP180;54562;47.620;18.786;2023-03-01T05:57:32;99367.60;;;3.00
67758;BMP180;54562;47.620;18.786;2023-03-01T06:00:40;99364.40;;;2.98
67758;BMP180;54562;47.620;18.786;2023-03-01T06:03:49;99367.60;;;3.00
67758;BMP180;54562;47.620;18.786;2023-03-01T06:06:57;99361.60;;;3.00
67758;BMP180;54562;47.620;18.786;2023-03-01T06:10:08;99366.40;;;3.00
67758;BMP180;54562;47.620;18.786;2023-03-01T06:13:16;99362.80;;;3.00
67758;BMP180;54562;47.620;18.786;2023-03-01T06:16:25;99372.00;;;3.00
67758;BMP180;54562;47.620;18.786;2023-03-01T06:19:33;99375.00;;;2.92
67758;BMP180;54562;47.620;18.786;2023-03-01T06:22:41;99374.80;;;2.90
67758;BMP180;54562;47.620;18.786;2023-03-01T06:25:50;99376.00;;;2.90
67758;BMP180;54562;47.620;18.786;2023-03-01T06:28:58;99375.20;;;2.90
67758;BMP180;54562;47.620;18.786;2023-03-01T06:32:07;99372.00;;;2.90
67758;BMP180;54562;47.620;18.786;2023-03-01T06:35:18;99380.00;;;2.90
67758;BMP180;54562;47.620;18.786;2023-03-01T06:38:26;99381.40;;;2.92
67758;BMP180;54562;47.620;18.786;2023-03-01T06:41:34;99388.00;;;3.00
67758;BMP180;54562;47.620;18.786;2023-03-01T06:44:45;99386.40;;;3.00
67758;BMP180;54562;47.620;18.786;2023-03-01T06:47:57;99386.40;;;3.00
67758;BMP180;54562;47.620;18.786;2023-03-01T06:51:08;99383.00;;;3.00
67758;BMP180;54562;47.620;18.786;2023-03-01T06:54:16;99388.20;;;3.00
67758;BMP180;54562;47.620;18.786;2023-03-01T06:57:25;99390.20;;;3.00
67758;BMP180;54562;47.620;18.786;2023-03-01T07:00:34;99391.60;;;3.00
67758;BMP180;54562;47.620;18.786;2023-03-01T07:03:42;99386.60;;;3.06
67758;BMP180;54562;47.620;18.786;2023-03-01T07:06:50;99382.20;;;3.10
67758;BMP180;54562;47.620;18.786;2023-03-01T07:10:02;99385.20;;;3.10
67758;BMP180;54562;47.620;18.786;2023-03-01T07:13:10;99380.60;;;3.10
67758;BMP180;54562;47.620;18.786;2023-03-01T07:16:18;99381.20;;;3.20
67758;BMP180;54562;47.620;18.786;2023-03-01T07:19:27;99376.20;;;3.30
67758;BMP180;54562;47.620;18.786;2023-03-01T07:22:35;99384.20;;;3.32
67758;BMP180;54562;47.620;18.786;2023-03-01T07:25:43;99388.20;;;3.40
67758;BMP180;54562;47.620;18.786;2023-03-01T07:28:51;99390.40;;;3.50
67758;BMP180;54562;47.620;18.786;2023-03-01T07:32:01;99389.40;;;3.60
67758;BMP180;54562;47.620;18.786;2023-03-01T07:35:08;99387.40;;;3.60
67758;BMP180;54562;47.620;18.786;2023-03-01T07:38:17;99384.80;;;3.70
67758;BMP180;54562;47.620;18.786;2023-03-01T07:41:24;99384.60;;;3.80
67758;BMP180;54562;47.620;18.786;2023-03-01T07:44:32;99378.20;;;3.80
67758;BMP180;54562;47.620;18.786;2023-03-01T07:47:41;99378.20;;;3.90
67758;BMP180;54562;47.620;18.786;2023-03-01T07:50:49;99367.60;;;4.00
67758;BMP180;54562;47.620;18.786;2023-03-01T07:53:57;99373.20;;;4.10
67758;BMP180;54562;47.620;18.786;2023-03-01T07:57:06;99378.80;;;4.20
67758;BMP180;54562;47.620;18.786;2023-03-01T08:00:16;99378.80;;;4.22
67758;BMP180;54562;47.620;18.786;2023-03-01T08:03:24;99369.20;;;4.30
67758;BMP180;54562;47.620;18.786;2023-03-01T08:06:33;99372.40;;;4.40
67758;BMP180;54562;47.620;18.786;2023-03-01T08:09:41;99368.00;;;4.50
67758;BMP180;54562;47.620;18.786;2023-03-01T08:12:52;99360.80;;;4.60
67758;BMP180;54562;47.620;18.786;2023-03-01T08:16:06;99360.40;;;4.70
67758;BMP180;54562;47.620;18.786;2023-03-01T08:19:15;99361.40;;;4.80
67758;BMP180;54562;47.620;18.786;2023-03-01T08:22:23;99359.80;;;4.90
67758;BMP180;54562;47.620;18.786;2023-03-01T08:25:31;99362.40;;;5.00
67758;BMP180;54562;47.620;18.786;2023-03-01T08:28:39;99364.40;;;5.10
67758;BMP180;54562;47.620;18.786;2023-03-01T08:31:48;99355.40;;;5.20
67758;BMP180;54562;47.620;18.786;2023-03-01T08:34:56;99349.40;;;5.22
67758;BMP180;54562;47.620;18.786;2023-03-01T08:38:04;99349.60;;;5.30
67758;BMP180;54562;47.620;18.786;2023-03-01T08:41:12;99350.60;;;5.42
67758;BMP180;54562;47.620;18.786;2023-03-01T08:44:21;99353.60;;;5.60
67758;BMP180;54562;47.620;18.786;2023-03-01T08:47:29;99343.60;;;5.66
67758;BMP180;54562;47.620;18.786;2023-03-01T08:50:37;99346.20;;;5.80
67758;BMP180;54562;47.620;18.786;2023-03-01T08:53:49;99343.00;;;5.90
67758;BMP180;54562;47.620;18.786;2023-03-01T08:56:58;99343.60;;;6.00
67758;BMP180;54562;47.620;18.786;2023-03-01T09:00:09;99343.80;;;6.06
67758;BMP180;54562;47.620;18.786;2023-03-01T09:03:21;99338.60;;;6.20
67758;BMP180;54562;47.620;18.786;2023-03-01T09:06:31;99335.40;;;6.30
67758;BMP180;54562;47.620;18.786;2023-03-01T09:09:40;99330.20;;;6.40
67758;BMP180;54562;47.620;18.786;2023-03-01T09:12:49;99328.40;;;6.52
67758;BMP180;54562;47.620;18.786;2023-03-01T09:15:57;99323.00;;;6.70
67758;BMP180;54562;47.620;18.786;2023-03-01T09:19:06;99318.40;;;6.80
67758;BMP180;54562;47.620;18.786;2023-03-01T09:22:14;99309.00;;;7.00
67758;BMP180;54562;47.620;18.786;2023-03-01T09:25:22;99307.20;;;7.20
67758;BMP180;54562;47.620;18.786;2023-03-01T09:28:30;99306.40;;;7.36
67758;BMP180;54562;47.620;18.786;2023-03-01T09:31:39;99294.40;;;7.60
67758;BMP180;54562;47.620;18.786;2023-03-01T09:34:47;99293.80;;;7.66
67758;BMP180;54562;47.620;18.786;2023-03-01T09:38:14;99285.60;;;7.72
67758;BMP180;54562;47.620;18.786;2023-03-01T09:41:46;99286.80;;;7.80
67758;BMP180;54562;47.620;18.786;2023-03-01T09:44:59;99284.20;;;7.90
67758;BMP180;54562;47.620;18.786;2023-03-01T09:48:18;99284.80;;;7.90
67758;BMP180;54562;47.620;18.786;2023-03-01T09:51:32;99279.00;;;8.00
67758;BMP180;54562;47.620;18.786;2023-03-01T09:54:41;99276.00;;;8.10
67758;BMP180;54562;47.620;18.786;2023-03-01T09:57:54;99277.00;;;8.20
67758;BMP180;54562;47.620;18.786;2023-03-01T10:01:15;99269.40;;;8.40
67758;BMP180;54562;47.620;18.786;2023-03-01T10:04:46;99267.80;;;8.50
67758;BMP180;54562;47.620;18.786;2023-03-01T10:08:20;99261.60;;;8.68
67758;BMP180;54562;47.620;18.786;2023-03-01T10:11:35;99263.20;;;9.00
67758;BMP180;54562;47.620;18.786;2023-03-01T10:14:54;99256.60;;;9.30
67758;BMP180;54562;47.620;18.786;2023-03-01T10:18:06;99254.40;;;9.50
67758;BMP180;54562;47.620;18.786;2023-03-01T10:21:20;99254.40;;;9.70
67758;BMP180;54562;47.620;18.786;2023-03-01T10:24:34;99251.60;;;9.90
67758;BMP180;54562;47.620;18.786;2023-03-01T10:27:53;99247.40;;;10.20
67758;BMP180;54562;47.620;18.786;2023-03-01T10:31:02;99235.80;;;10.40
67758;BMP180;54562;47.620;18.786;2023-03-01T10:34:18;99230.20;;;10.60
67758;BMP180;54562;47.620;18.786;2023-03-01T10:37:27;99225.60;;;10.60
67758;BMP180;54562;47.620;18.786;2023-03-01T10:40:50;99218.00;;;10.72
67758;BMP180;54562;47.620;18.786;2023-03-01T10:44:01;99209.20;;;10.90
67758;BMP180;54562;47.620;18.786;2023-03-01T10:47:15;99204.60;;;11.00
67758;BMP180;54562;47.620;18.786;2023-03-01T10:50:24;99199.20;;;11.00
67758;BMP180;54562;47.620;18.786;2023-03-01T10:53:37;99200.00;;;11.20
67758;BMP180;54562;47.620;18.786;2023-03-01T10:56:57;99202.00;;;11.46
67758;BMP180;54562;47.620;18.786;2023-03-01T11:00:23;99188.20;;;11.70
67758;BMP180;54562;47.620;18.786;2023-03-01T11:03:33;99184.80;;;11.80
67758;BMP180;54562;47.620;18.786;2023-03-01T11:06:43;99181.20;;;11.80
67758;BMP180;54562;47.620;18.786;2023-03-01T11:09:51;99180.00;;;11.80
67758;BMP180;54562;47.620;18.786;2023-03-01T11:13:16;99175.20;;;11.90
67758;BMP180;54562;47.620;18.786;2023-03-01T11:16:35;99171.80;;;11.90
67758;BMP180;54562;47.620;18.786;2023-03-01T11:19:44;99168.20;;;11.66
67758;BMP180;54562;47.620;18.786;2023-03-01T11:23:14;99174.60;;;11.40
67758;BMP180;54562;47.620;18.786;2023-03-01T11:26:24;99173.40;;;11.28
67758;BMP180;54562;47.620;18.786;2023-03-01T11:29:38;99169.80;;;11.10
67758;BMP180;54562;47.620;18.786;2023-03-01T11:33:08;99166.40;;;10.90
67758;BMP180;54562;47.620;18.786;2023-03-01T11:36:30;99163.60;;;10.90
67758;BMP180;54562;47.620;18.786;2023-03-01T11:39:41;99163.80;;;10.90
67758;BMP180;54562;47.620;18.786;2023-03-01T11:43:09;99165.00;;;10.80
67758;BMP180;54562;47.620;18.786;2023-03-01T11:46:54;99169.40;;;10.80
67758;BMP180;54562;47.620;18.786;2023-03-01T11:50:28;99175.20;;;10.80
67758;BMP180;54562;47.620;18.786;2023-03-01T11:54:01;99180.80;;;10.70
67758;BMP180;54562;47.620;18.786;2023-03-01T11:57:28;99175.60;;;10.60
67758;BMP180;54562;47.620;18.786;2023-03-01T12:01:10;99172.60;;;10.50
67758;BMP180;54562;47.620;18.786;2023-03-01T12:08:23;99162.80;;;10.30
67758;BMP180;54562;47.620;18.786;2023-03-01T12:11:58;99153.60;;;10.22
67758;BMP180;54562;47.620;18.786;2023-03-01T12:15:46;99156.80;;;10.22
67758;BMP180;54562;47.620;18.786;2023-03-01T12:23:20;99149.60;;;10.20
67758;BMP180;54562;47.620;18.786;2023-03-01T12:26:38;99148.60;;;10.20
67758;BMP180;54562;47.620;18.786;2023-03-01T12:30:00;99150.00;;;10.16
67758;BMP180;54562;47.620;18.786;2023-03-01T12:33:25;99140.20;;;10.12
67758;BMP180;54562;47.620;18.786;2023-03-01T12:37:09;99130.40;;;10.20
67758;BMP180;54562;47.620;18.786;2023-03-01T12:44:31;99137.40;;;10.32
67758;BMP180;54562;47.620;18.786;2023-03-01T12:48:12;99133.80;;;10.44
67758;BMP180;54562;47.620;18.786;2023-03-01T12:51:30;99125.00;;;10.60
67758;BMP180;54562;47.620;18.786;2023-03-01T12:54:39;99116.20;;;10.76
67758;BMP180;54562;47.620;18.786;2023-03-01T12:58:00;99126.80;;;10.92
67758;BMP180;54562;47.620;18.786;2023-03-01T13:01:21;99117.60;;;11.10
67758;BMP180;54562;47.620;18.786;2023-03-01T13:04:45;99112.80;;;11.30
67758;BMP180;54562;47.620;18.786;2023-03-01T13:08:07;99119.80;;;11.40
67758;BMP180;54562;47.620;18.786;2023-03-01T13:11:22;99113.80;;;11.32
67758;BMP180;54562;47.620;18.786;2023-03-01T13:14:49;99115.80;;;11.30
67758;BMP180;54562;47.620;18.786;2023-03-01T13:18:04;99107.80;;;11.30
67758;BMP180;54562;47.620;18.786;2023-03-01T13:21:35;99114.40;;;11.20
67758;BMP180;54562;47.620;18.786;2023-03-01T13:24:44;99104.20;;;11.00
67758;BMP180;54562;47.620;18.786;2023-03-01T13:27:55;99109.60;;;11.10
67758;BMP180;54562;47.620;18.786;2023-03-01T13:31:59;99101.80;;;11.30
67758;BMP180;54562;47.620;18.786;2023-03-01T13:35:46;99097.20;;;11.90
67758;BMP180;54562;47.620;18.786;2023-03-01T13:39:01;99087.60;;;12.40
67758;BMP180;54562;47.620;18.786;2023-03-01T13:42:39;99081.80;;;12.80
67758;BMP180;54562;47.620;18.786;2023-03-01T13:45:49;99085.60;;;13.18
67758;BMP180;54562;47.620;18.786;2023-03-01T13:49:00;99081.60;;;13.40
67758;BMP180;54562;47.620;18.786;2023-03-01T13:52:27;99074.80;;;13.40
67758;BMP180;54562;47.620;18.786;2023-03-01T13:55:44;99066.40;;;13.40
67758;BMP180;54562;47.620;18.786;2023-03-01T13:58:58;99063.40;;;13.40
67758;BMP180;54562;47.620;18.786;2023-03-01T14:02:16;99061.20;;;13.18
67758;BMP180;54562;47.620;18.786;2023-03-01T14:05:25;99050.60;;;13.10
67758;BMP180;54562;47.620;18.786;2023-03-01T14:08:36;99044.20;;;13.30
67758;BMP180;54562;47.620;18.786;2023-03-01T14:12:13;99038.80;;;13.50
67758;BMP180;54562;47.620;18.786;2023-03-01T14:15:33;99043.80;;;13.70
67758;BMP180;54562;47.620;18.786;2023-03-01T14:18:50;99043.40;;;13.80
67758;BMP180;54562;47.620;18.786;2023-03-01T14:22:15;99035.00;;;13.90
67758;BMP180;54562;47.620;18.786;2023-03-01T14:25:28;99032.20;;;14.00
67758;BMP180;54562;47.620;18.786;2023-03-01T14:28:39;99031.00;;;14.00
67758;BMP180;54562;47.620;18.786;2023-03-01T14:31:49;99025.80;;;14.10
67758;BMP180;54562;47.620;18.786;2023-03-01T14:35:00;99018.20;;;14.10
67758;BMP180;54562;47.620;18.786;2023-03-01T14:38:22;99020.40;;;14.10
67758;BMP180;54562;47.620;18.786;2023-03-01T14:41:32;99018.60;;;14.00
67758;BMP180;54562;47.620;18.786;2023-03-01T14:44:44;99015.60;;;14.00
67758;BMP180;54562;47.620;18.786;2023-03-01T14:47:54;99013.60;;;13.80
67758;BMP180;54562;47.620;18.786;2023-03-01T14:51:06;99012.40;;;13.70
67758;BMP180;54562;47.620;18.786;2023-03-01T14:54:26;99010.60;;;13.70
67758;BMP180;54562;47.620;18.786;2023-03-01T14:57:36;99004.80;;;13.50
67758;BMP180;54562;47.620;18.786;2023-03-01T15:00:52;98999.80;;;13.38
67758;BMP180;54562;47.620;18.786;2023-03-01T15:04:02;98991.40;;;13.20
67758;BMP180;54562;47.620;18.786;2023-03-01T15:07:15;98993.40;;;13.00
67758;BMP180;54562;47.620;18.786;2023-03-01T15:10:28;98993.00;;;12.72
67758;BMP180;54562;47.620;18.786;2023-03-01T15:13:37;98989.60;;;12.50
67758;BMP180;54562;47.620;18.786;2023-03-01T15:16:45;98988.80;;;12.40
67758;BMP180;54562;47.620;18.786;2023-03-01T15:19:56;98989.20;;;12.26
67758;BMP180;54562;47.620;18.786;2023-03-01T15:23:05;98986.80;;;12.10
67758;BMP180;54562;47.620;18.786;2023-03-01T15:26:28;98983.20;;;11.90
67758;BMP180;54562;47.620;18.786;2023-03-01T15:29:37;98986.80;;;11.60
67758;BMP180;54562;47.620;18.786;2023-03-01T15:32:47;98992.80;;;11.50
67758;BMP180;54562;47.620;18.786;2023-03-01T15:35:57;98999.00;;;11.30
67758;BMP180;54562;47.620;18.786;2023-03-01T15:42:40;99006.00;;;10.90
67758;BMP180;54562;47.620;18.786;2023-03-01T15:45:57;99008.80;;;10.70
67758;BMP180;54562;47.620;18.786;2023-03-01T15:49:27;99006.80;;;10.50
67758;BMP180;54562;47.620;18.786;2023-03-01T15:52:35;99004.60;;;10.30
67758;BMP180;54562;47.620;18.786;2023-03-01T15:55:47;99005.60;;;10.10
67758;BMP180;54562;47.620;18.786;2023-03-01T15:58:59;99007.40;;;9.90
67758;BMP180;54562;47.620;18.786;2023-03-01T16:02:12;99011.00;;;9.70
67758;BMP180;54562;47.620;18.786;2023-03-01T16:05:27;99012.20;;;9.50
67758;BMP180;54562;47.620;18.786;2023-03-01T16:08:37;99012.00;;;9.34
67758;BMP180;54562;47.620;18.786;2023-03-01T16:11:45;99008.40;;;9.20
67758;BMP180;54562;47.620;18.786;2023-03-01T16:14:54;99008.20;;;9.00
67758;BMP180;54562;47.620;18.786;2023-03-01T16:18:05;99001.60;;;8.80
67758;BMP180;54562;47.620;18.786;2023-03-01T16:21:24;99001.80;;;8.62
67758;BMP180;54562;47.620;18.786;2023-03-01T16:24:32;99014.40;;;8.50
67758;BMP180;54562;47.620;18.786;2023-03-01T16:27:46;99015.20;;;8.40
67758;BMP180;54562;47.620;18.786;2023-03-01T16:30:55;99020.00;;;8.30
67758;BMP180;54562;47.620;18.786;2023-03-01T16:34:03;99022.80;;;8.20
67758;BMP180;54562;47.620;18.786;2023-03-01T16:37:11;99027.00;;;8.10
67758;BMP180;54562;47.620;18.786;2023-03-01T16:40:23;99031.40;;;8.00
67758;BMP180;54562;47.620;18.786;2023-03-01T16:43:32;99038.80;;;7.90
67758;BMP180;54562;47.620;18.786;2023-03-01T16:46:43;99031.20;;;7.80
67758;BMP180;54562;47.620;18.786;2023-03-01T16:49:55;99034.60;;;7.70
67758;BMP180;54562;47.620;18.786;2023-03-01T16:53:03;99036.80;;;7.50
67758;BMP180;54562;47.620;18.786;2023-03-01T16:56:14;99039.40;;;7.40
67758;BMP180;54562;47.620;18.786;2023-03-01T16:59:22;99043.80;;;7.30
67758;BMP180;54562;47.620;18.786;2023-03-01T17:02:30;99045.00;;;7.30
67758;BMP180;54562;47.620;18.786;2023-03-01T17:05:41;99055.60;;;7.20
67758;BMP180;54562;47.620;18.786;2023-03-01T17:08:49;99063.20;;;7.10
67758;BMP180;54562;47.620;18.786;2023-03-01T17:11:57;99060.20;;;7.00
67758;BMP180;54562;47.620;18.786;2023-03-01T17:15:08;99060.40;;;6.90
67758;BMP180;54562;47.620;18.786;2023-03-01T17:18:18;99057.00;;;6.72
67758;BMP180;54562;47.620;18.786;2023-03-01T17:21:26;99059.20;;;6.70
67758;BMP180;54562;47.620;18.786;2023-03-01T17:24:37;99054.00;;;6.60
67758;BMP180;54562;47.620;18.786;2023-03-01T17:27:45;99055.00;;;6.50
67758;BMP180;54562;47.620;18.786;2023-03-01T17:30:53;99057.00;;;6.40
67758;BMP180;54562;47.620;18.786;2023-03-01T17:34:02;99051.80;;;6.40
67758;BMP180;54562;47.620;18.786;2023-03-01T17:37:10;99048.00;;;6.30
67758;BMP180;54562;47.620;18.786;2023-03-01T17:40:18;99047.80;;;6.30
67758;BMP180;54562;47.620;18.786;2023-03-01T17:43:26;99045.80;;;6.20
67758;BMP180;54562;47.620;18.786;2023-03-01T17:46:34;99049.00;;;6.20
67758;BMP180;54562;47.620;18.786;2023-03-01T17:49:42;99035.80;;;6.20
67758;BMP180;54562;47.620;18.786;2023-03-01T17:52:50;99030.00;;;6.10
67758;BMP180;54562;47.620;18.786;2023-03-01T17:56:05;99036.00;;;6.10
67758;BMP180;54562;47.620;18.786;2023-03-01T17:59:17;99036.00;;;6.10
67758;BMP180;54562;47.620;18.786;2023-03-01T18:02:25;99033.40;;;6.08
67758;BMP180;54562;47.620;18.786;2023-03-01T18:05:36;99038.60;;;6.00
67758;BMP180;54562;47.620;18.786;2023-03-01T18:08:45;99037.20;;;6.00
67758;BMP180;54562;47.620;18.786;2023-03-01T18:11:55;99033.20;;;6.00
67758;BMP180;54562;47.620;18.786;2023-03-01T18:15:03;99031.20;;;5.92
67758;BMP180;54562;47.620;18.786;2023-03-01T18:18:11;99031.60;;;5.90
67758;BMP180;54562;47.620;18.786;2023-03-01T18:21:19;99025.60;;;5.90
67758;BMP180;54562;47.620;18.786;2023-03-01T18:24:29;99025.60;;;5.90
67758;BMP180;54562;47.620;18.786;2023-03-01T18:27:37;99020.40;;;5.90
67758;BMP180;54562;47.620;18.786;2023-03-01T18:30:45;99024.00;;;5.80
67758;BMP180;54562;47.620;18.786;2023-03-01T18:33:57;99026.20;;;5.80
67758;BMP180;54562;47.620;18.786;2023-03-01T18:37:06;99022.40;;;5.80
67758;BMP180;54562;47.620;18.786;2023-03-01T18:40:16;99023.80;;;5.70
67758;BMP180;54562;47.620;18.786;2023-03-01T18:43:24;99019.20;;;5.70
67758;BMP180;54562;47.620;18.786;2023-03-01T18:46:35;99020.60;;;5.70
67758;BMP180;54562;47.620;18.786;2023-03-01T18:49:46;99021.00;;;5.66